sensor_id;sensor_type;location;lat;lon;timestamp;pressure;altitude;pressure_sealevel;temperature;humidity
56594;BME280;42474;51.660;5.824;2023-03-03T00:03:30;102380.0;;;1.5;84.0
56594;BME280;42474;51.660;5.824;2023-03-03T00:08:30;102390.0;;;1.5;84.0
56594;BME280;42474;51.660;5.824;2023-03-03T00:13:32;102380.0;;;1.4;84.0
56594;BME280;42474;51.660;5.824;2023-03-03T00:18:36;102380.0;;;1.5;84.5
56594;BME280;42474;51.660;5.824;2023-03-03T00:23:34;102390.0;;;1.4;85.0
56594;BME280;42474;51.660;5.824;2023-03-03T00:28:31;102390.0;;;1.5;84.5
56594;BME280;42474;51.660;5.824;2023-03-03T00:33:32;102390.0;;;1.5;84.5
56594;BME280;42474;51.660;5.824;2023-03-03T00:38:34;102400.0;;;1.5;84.5
56594;BME280;42474;51.660;5.824;2023-03-03T00:43:35;102400.0;;;1.5;84.5
56594;BME280;42474;51.660;5.824;2023-03-03T00:48:39;102410.0;;;1.4;84.5
56594;BME280;42474;51.660;5.824;2023-03-03T00:53:30;102400.0;;;1.5;85.0
56594;BME280;42474;51.660;5.824;2023-03-03T00:58:30;102400.0;;;1.4;85.0
56594;BME280;42474;51.660;5.824;2023-03-03T01:03:30;102390.0;;;1.3;85.0
56594;BME280;42474;51.660;5.824;2023-03-03T01:08:30;102410.0;;;1.2;85.5
56594;BME280;42474;51.660;5.824;2023-03-03T01:13:32;102410.0;;;1.3;86.0
56594;BME280;42474;51.660;5.824;2023-03-03T01:18:30;102410.0;;;1.3;86.0
56594;BME280;42474;51.660;5.824;2023-03-03T01:23:30;102420.0;;;1.3;86.0
56594;BME280;42474;51.660;5.824;2023-03-03T01:28:31;102430.0;;;1.3;86.0
56594;BME280;42474;51.660;5.824;2023-03-03T01:33:30;102410.0;;;1.3;86.0
56594;BME280;42474;51.660;5.824;2023-03-03T01:38:30;102410.0;;;1.4;85.5
56594;BME280;42474;51.660;5.824;2023-03-03T01:43:32;102410.0;;;1.4;86.0
56594;BME280;42474;51.660;5.824;2023-03-03T01:48:32;102420.0;;;1.5;85.5
56594;BME280;42474;51.660;5.824;2023-03-03T01:53:36;102410.0;;;1.5;86.0
56594;BME280;42474;51.660;5.824;2023-03-03T01:58:34;102420.0;;;1.5;86.5
56594;BME280;42474;51.660;5.824;2023-03-03T02:03:30;102420.0;;;1.4;86.5
56594;BME280;42474;51.660;5.824;2023-03-03T02:08:39;102420.0;;;1.5;86.5
56594;BME280;42474;51.660;5.824;2023-03-03T02:13:30;102410.0;;;1.5;87.0
56594;BME280;42474;51.660;5.824;2023-03-03T02:18:30;102420.0;;;1.4;87.0
56594;BME280;42474;51.660;5.824;2023-03-03T02:23:34;102420.0;;;1.4;86.5
56594;BME280;42474;51.660;5.824;2023-03-03T02:28:32;102420.0;;;1.5;86.5
56594;BME280;42474;51.660;5.824;2023-03-03T02:33:30;102430.0;;;1.4;86.5
56594;BME280;42474;51.660;5.824;2023-03-03T02:38:34;102420.0;;;1.4;86.0
56594;BME280;42474;51.660;5.824;2023-03-03T02:43:32;102420.0;;;1.4;86.0
56594;BME280;42474;51.660;5.824;2023-03-03T02:48:30;102420.0;;;1.4;86.0
56594;BME280;42474;51.660;5.824;2023-03-03T02:53:30;102420.0;;;1.4;87.0
56594;BME280;42474;51.660;5.824;2023-03-03T02:58:30;102420.0;;;1.3;87.0
56594;BME280;42474;51.660;5.824;2023-03-03T03:03:30;102420.0;;;1.3;87.0
56594;BME280;42474;51.660;5.824;2023-03-03T03:08:30;102410.0;;;1.3;87.0
56594;BME280;42474;51.660;5.824;2023-03-03T03:13:31;102410.0;;;1.4;87.0
56594;BME280;42474;51.660;5.824;2023-03-03T03:18:30;102410.0;;;1.4;87.5
56594;BME280;42474;51.660;5.824;2023-03-03T03:23:30;102430.0;;;1.4;87.0
56594;BME280;42474;51.660;5.824;2023-03-03T03:28:30;102420.0;;;1.3;87.0
56594;BME280;42474;51.660;5.824;2023-03-03T03:33:30;102430.0;;;1.3;87.0
56594;BME280;42474;51.660;5.824;2023-03-03T03:38:30;102430.0;;;1.3;87.5
56594;BME280;42474;51.660;5.824;2023-03-03T03:43:30;102430.0;;;1.3;87.5
56594;BME280;42474;51.660;5.824;2023-03-03T03:48:30;102440.0;;;1.4;87.5
56594;BME280;42474;51.660;5.824;2023-03-03T03:53:30;102430.0;;;1.4;87.5
56594;BME280;42474;51.660;5.824;2023-03-03T03:58:30;102440.0;;;1.4;87.5
56594;BME280;42474;51.660;5.824;2023-03-03T04:03:30;102450.0;;;1.5;87.5
56594;BME280;42474;51.660;5.824;2023-03-03T04:08:30;102440.0;;;1.5;87.5
56594;BME280;42474;51.660;5.824;2023-03-03T04:13:30;102440.0;;;1.5;87.5
56594;BME280;42474;51.660;5.824;2023-03-03T04:18:30;102450.0;;;1.5;87.5
56594;BME280;42474;51.660;5.824;2023-03-03T04:23:30;102430.0;;;1.5;87.5
56594;BME280;42474;51.660;5.824;2023-03-03T04:28:30;102440.0;;;1.6;87.5
56594;BME280;42474;51.660;5.824;2023-03-03T04:33:30;102440.0;;;1.6;87.5
56594;BME280;42474;51.660;5.824;2023-03-03T04:38:30;102440.0;;;1.6;87.5
56594;BME280;42474;51.660;5.824;2023-03-03T04:43:30;102440.0;;;1.6;87.5
56594;BME280;42474;51.660;5.824;2023-03-03T04:48:30;102440.0;;;1.7;88.0
56594;BME280;42474;51.660;5.824;2023-03-03T04:53:30;102440.0;;;1.7;88.0
56594;BME280;42474;51.660;5.824;2023-03-03T04:58:30;102440.0;;;1.7;87.5
56594;BME280;42474;51.660;5.824;2023-03-03T05:03:30;102450.0;;;1.7;87.5
56594;BME280;42474;51.660;5.824;2023-03-03T05:08:30;102450.0;;;1.8;87.5
56594;BME280;42474;51.660;5.824;2023-03-03T05:13:30;102450.0;;;1.8;87.5
56594;BME280;42474;51.660;5.824;2023-03-03T05:18:30;102450.0;;;1.8;87.0
56594;BME280;42474;51.660;5.824;2023-03-03T05:23:30;102450.0;;;1.9;87.0
56594;BME280;42474;51.660;5.824;2023-03-03T05:28:30;102460.0;;;1.9;87.0
56594;BME280;42474;51.660;5.824;2023-03-03T05:33:30;102450.0;;;1.9;87.0
56594;BME280;42474;51.660;5.824;2023-03-03T05:38:30;102460.0;;;1.9;86.5
56594;BME280;42474;51.660;5.824;2023-03-03T05:43:30;102460.0;;;2.0;86.5
56594;BME280;42474;51.660;5.824;2023-03-03T05:48:30;102460.0;;;2.0;86.0
56594;BME280;42474;51.660;5.824;2023-03-03T05:53:30;102450.0;;;2.0;86.5
56594;BME280;42474;51.660;5.824;2023-03-03T05:58:30;102450.0;;;2.0;86.5
56594;BME280;42474;51.660;5.824;2023-03-03T06:03:30;102450.0;;;2.0;86.5
56594;BME280;42474;51.660;5.824;2023-03-03T06:08:30;102460.0;;;2.1;86.5
56594;BME280;42474;51.660;5.824;2023-03-03T06:13:30;102470.0;;;2.1;86.0
56594;BME280;42474;51.660;5.824;2023-03-03T06:18:30;102470.0;;;2.1;86.0
56594;BME280;42474;51.660;5.824;2023-03-03T06:23:30;102480.0;;;2.2;85.5
56594;BME280;42474;51.660;5.824;2023-03-03T06:28:30;102490.0;;;2.2;85.5
56594;BME280;42474;51.660;5.824;2023-03-03T06:33:30;102490.0;;;2.3;85.5
56594;BME280;42474;51.660;5.824;2023-03-03T06:38:30;102500.0;;;2.3;85.5
56594;BME280;42474;51.660;5.824;2023-03-03T06:43:30;102510.0;;;2.3;85.5
56594;BME280;42474;51.660;5.824;2023-03-03T06:48:31;102510.0;;;2.4;85.5
56594;BME280;42474;51.660;5.824;2023-03-03T06:53:30;102510.0;;;2.4;85.5
56594;BME280;42474;51.660;5.824;2023-03-03T06:58:30;102510.0;;;2.5;85.0
56594;BME280;42474;51.660;5.824;2023-03-03T07:03:32;102520.0;;;2.5;85.0
56594;BME280;42474;51.660;5.824;2023-03-03T07:08:31;102520.0;;;2.6;85.0
56594;BME280;42474;51.660;5.824;2023-03-03T07:13:31;102530.0;;;2.7;85.0
56594;BME280;42474;51.660;5.824;2023-03-03T07:18:51;102530.0;;;2.7;84.5
56594;BME280;42474;51.660;5.824;2023-03-03T07:23:37;102530.0;;;2.8;84.5
56594;BME280;42474;51.660;5.824;2023-03-03T07:28:30;102540.0;;;2.8;84.5
56594;BME280;42474;51.660;5.824;2023-03-03T07:33:34;102550.0;;;2.9;84.0
56594;BME280;42474;51.660;5.824;2023-03-03T07:38:58;102550.0;;;2.9;83.5
56594;BME280;42474;51.660;5.824;2023-03-03T07:43:47;102560.0;;;2.9;84.0
56594;BME280;42474;51.660;5.824;2023-03-03T07:48:36;102560.0;;;3.0;84.0
56594;BME280;42474;51.660;5.824;2023-03-03T07:53:34;102560.0;;;3.0;83.5
56594;BME280;42474;51.660;5.824;2023-03-03T07:58:39;102560.0;;;3.0;83.5
56594;BME280;42474;51.660;5.824;2023-03-03T08:03:33;102570.0;;;3.0;83.0
56594;BME280;42474;51.660;5.824;2023-03-03T08:08:32;102570.0;;;3.0;83.5
56594;BME280;42474;51.660;5.824;2023-03-03T08:13:36;102570.0;;;3.1;83.5
56594;BME280;42474;51.660;5.824;2023-03-03T08:18:37;102580.0;;;3.2;82.5
56594;BME280;42474;51.660;5.824;2023-03-03T08:23:30;102580.0;;;3.3;82.0
56594;BME280;42474;51.660;5.824;2023-03-03T08:28:30;102590.0;;;3.3;82.0
56594;BME280;42474;51.660;5.824;2023-03-03T08:33:30;102590.0;;;3.4;81.5
56594;BME280;42474;51.660;5.824;2023-03-03T08:38:30;102600.0;;;3.4;81.5
56594;BME280;42474;51.660;5.824;2023-03-03T08:43:30;102600.0;;;3.4;81.0
56594;BME280;42474;51.660;5.824;2023-03-03T08:48:31;102600.0;;;3.5;81.5
56594;BME280;42474;51.660;5.824;2023-03-03T08:53:30;102610.0;;;3.5;81.5
56594;BME280;42474;51.660;5.824;2023-03-03T08:58:30;102600.0;;;3.6;81.0
56594;BME280;42474;51.660;5.824;2023-03-03T09:03:30;102610.0;;;3.7;81.0
56594;BME280;42474;51.660;5.824;2023-03-03T09:08:31;102610.0;;;3.7;81.0
56594;BME280;42474;51.660;5.824;2023-03-03T09:13:30;102610.0;;;3.8;80.5
56594;BME280;42474;51.660;5.824;2023-03-03T09:18:34;102620.0;;;3.9;80.5
56594;BME280;42474;51.660;5.824;2023-03-03T09:23:35;102620.0;;;4.0;80.0
56594;BME280;42474;51.660;5.824;2023-03-03T09:28:31;102630.0;;;4.0;80.0
56594;BME280;42474;51.660;5.824;2023-03-03T09:33:43;102630.0;;;4.1;79.5
56594;BME280;42474;51.660;5.824;2023-03-03T09:38:32;102630.0;;;4.2;79.5
56594;BME280;42474;51.660;5.824;2023-03-03T09:44:36;102630.0;;;4.3;79.0
56594;BME280;42474;51.660;5.824;2023-03-03T09:50:29;102640.0;;;4.3;78.5
56594;BME280;42474;51.660;5.824;2023-03-03T09:55:47;102630.0;;;4.4;78.5
56594;BME280;42474;51.660;5.824;2023-03-03T10:00:21;102640.0;;;4.4;77.5
56594;BME280;42474;51.660;5.824;2023-03-03T10:06:47;102640.0;;;4.5;77.5
56594;BME280;42474;51.660;5.824;2023-03-03T10:11:31;102650.0;;;4.6;77.5
56594;BME280;42474;51.660;5.824;2023-03-03T10:17:00;102640.0;;;4.7;77.5
56594;BME280;42474;51.660;5.824;2023-03-03T10:21:23;102630.0;;;4.9;77.5
56594;BME280;42474;51.660;5.824;2023-03-03T10:25:46;102630.0;;;5.0;77.0
56594;BME280;42474;51.660;5.824;2023-03-03T10:31:22;102630.0;;;5.1;76.0
56594;BME280;42474;51.660;5.824;2023-03-03T10:36:38;102640.0;;;5.3;76.0
56594;BME280;42474;51.660;5.824;2023-03-03T10:41:59;102630.0;;;5.2;74.5
56594;BME280;42474;51.660;5.824;2023-03-03T10:47:33;102650.0;;;5.3;75.5
56594;BME280;42474;51.660;5.824;2023-03-03T10:53:11;102640.0;;;5.5;76.0
56594;BME280;42474;51.660;5.824;2023-03-03T10:59:01;102650.0;;;5.7;76.0
56594;BME280;42474;51.660;5.824;2023-03-03T11:04:31;102640.0;;;5.8;74.5
56594;BME280;42474;51.660;5.824;2023-03-03T11:08:29;102640.0;;;5.8;75.0
56594;BME280;42474;51.660;5.824;2023-03-03T11:13:15;102640.0;;;5.9;74.0
56594;BME280;42474;51.660;5.824;2023-03-03T11:19:05;102640.0;;;5.9;74.5
56594;BME280;42474;51.660;5.824;2023-03-03T11:24:10;102630.0;;;6.0;74.5
56594;BME280;42474;51.660;5.824;2023-03-03T11:30:16;102630.0;;;6.1;73.0
56594;BME280;42474;51.660;5.824;2023-03-03T11:34:54;102620.0;;;6.0;73.0
56594;BME280;42474;51.660;5.824;2023-03-03T11:39:16;102620.0;;;5.9;73.0
56594;BME280;42474;51.660;5.824;2023-03-03T11:39:29;102620.0;;;6.0;73.5
56594;BME280;42474;51.660;5.824;2023-03-03T11:43:52;102620.0;;;6.2;72.5
56594;BME280;42474;51.660;5.824;2023-03-03T11:48:41;102610.0;;;6.1;72.5
56594;BME280;42474;51.660;5.824;2023-03-03T11:54:02;102610.0;;;6.2;72.0
56594;BME280;42474;51.660;5.824;2023-03-03T11:58:38;102610.0;;;6.2;72.0
56594;BME280;42474;51.660;5.824;2023-03-03T12:03:44;102610.0;;;6.1;72.0
56594;BME280;42474;51.660;5.824;2023-03-03T12:09:12;102600.0;;;6.4;73.0
56594;BME280;42474;51.660;5.824;2023-03-03T12:14:15;102590.0;;;6.7;71.5
56594;BME280;42474;51.660;5.824;2023-03-03T12:19:14;102590.0;;;7.0;72.0
56594;BME280;42474;51.660;5.824;2023-03-03T12:24:33;102590.0;;;7.4;72.0
56594;BME280;42474;51.660;5.824;2023-03-03T12:28:54;102580.0;;;7.8;71.5
56594;BME280;42474;51.660;5.824;2023-03-03T12:33:52;102570.0;;;7.7;69.0
56594;BME280;42474;51.660;5.824;2023-03-03T12:39:15;102580.0;;;7.6;69.0
56594;BME280;42474;51.660;5.824;2023-03-03T12:44:01;102570.0;;;7.6;69.0
56594;BME280;42474;51.660;5.824;2023-03-03T12:48:40;102560.0;;;7.8;68.0
56594;BME280;42474;51.660;5.824;2023-03-03T12:54:13;102560.0;;;7.8;67.5
56594;BME280;42474;51.660;5.824;2023-03-03T12:58:42;102550.0;;;7.9;67.0
56594;BME280;42474;51.660;5.824;2023-03-03T13:04:03;102560.0;;;8.0;66.5
56594;BME280;42474;51.660;5.824;2023-03-03T13:08:52;102560.0;;;8.1;67.5
56594;BME280;42474;51.660;5.824;2023-03-03T13:14:02;102550.0;;;8.4;67.5
56594;BME280;42474;51.660;5.824;2023-03-03T13:18:43;102540.0;;;8.7;67.5
56594;BME280;42474;51.660;5.824;2023-03-03T13:25:52;102540.0;;;8.8;65.5
56594;BME280;42474;51.660;5.824;2023-03-03T13:30:37;102540.0;;;8.9;66.0
56594;BME280;42474;51.660;5.824;2023-03-03T13:35:54;102540.0;;;9.0;65.5
56594;BME280;42474;51.660;5.824;2023-03-03T13:40:26;102520.0;;;9.1;66.0
56594;BME280;42474;51.660;5.824;2023-03-03T13:45:51;102530.0;;;9.2;65.5
56594;BME280;42474;51.660;5.824;2023-03-03T13:51:03;102520.0;;;9.3;65.0
56594;BME280;42474;51.660;5.824;2023-03-03T13:56:18;102530.0;;;9.3;63.0
56594;BME280;42474;51.660;5.824;2023-03-03T14:01:30;102520.0;;;9.4;63.5
56594;BME280;42474;51.660;5.824;2023-03-03T14:06:21;102520.0;;;9.5;62.5
56594;BME280;42474;51.660;5.824;2023-03-03T14:10:30;102520.0;;;9.5;62.0
56594;BME280;42474;51.660;5.824;2023-03-03T14:15:38;102520.0;;;9.5;63.0
56594;BME280;42474;51.660;5.824;2023-03-03T14:20:29;102510.0;;;9.6;63.0
56594;BME280;42474;51.660;5.824;2023-03-03T14:25:22;102510.0;;;9.5;61.5
56594;BME280;42474;51.660;5.824;2023-03-03T14:30:36;102500.0;;;9.5;62.0
56594;BME280;42474;51.660;5.824;2023-03-03T14:35:21;102500.0;;;9.4;62.5
56594;BME280;42474;51.660;5.824;2023-03-03T14:40:32;102500.0;;;9.5;62.5
56594;BME280;42474;51.660;5.824;2023-03-03T14:45:40;102490.0;;;9.6;62.0
56594;BME280;42474;51.660;5.824;2023-03-03T14:50:37;102490.0;;;9.7;61.0
56594;BME280;42474;51.660;5.824;2023-03-03T14:55:47;102490.0;;;9.8;62.0
56594;BME280;42474;51.660;5.824;2023-03-03T15:00:34;102480.0;;;10.0;61.5
56594;BME280;42474;51.660;5.824;2023-03-03T15:05:24;102480.0;;;9.9;59.5
56594;BME280;42474;51.660;5.824;2023-03-03T15:10:33;102470.0;;;9.8;60.0
56594;BME280;42474;51.660;5.824;2023-03-03T15:15:24;102470.0;;;9.6;60.5
56594;BME280;42474;51.660;5.824;2023-03-03T15:20:50;102460.0;;;9.6;61.5
56594;BME280;42474;51.660;5.824;2023-03-03T15:25:46;102450.0;;;9.7;61.5
56594;BME280;42474;51.660;5.824;2023-03-03T15:30:38;102440.0;;;9.7;61.5
56594;BME280;42474;51.660;5.824;2023-03-03T15:35:43;102440.0;;;9.8;61.5
56594;BME280;42474;51.660;5.824;2023-03-03T15:40:47;102440.0;;;9.8;61.0
56594;BME280;42474;51.660;5.824;2023-03-03T15:46:11;102430.0;;;9.6;61.0
56594;BME280;42474;51.660;5.824;2023-03-03T15:52:01;102430.0;;;9.5;61.5
56594;BME280;42474;51.660;5.824;2023-03-03T15:57:13;102430.0;;;9.4;61.5
56594;BME280;42474;51.660;5.824;2023-03-03T16:02:17;102430.0;;;9.3;62.0
56594;BME280;42474;51.660;5.824;2023-03-03T16:05:28;102420.0;;;9.3;62.0
56594;BME280;42474;51.660;5.824;2023-03-03T16:10:48;102420.0;;;9.3;62.5
56594;BME280;42474;51.660;5.824;2023-03-03T16:16:42;102420.0;;;9.3;62.5
56594;BME280;42474;51.660;5.824;2023-03-03T16:21:53;102420.0;;;9.3;62.5
56594;BME280;42474;51.660;5.824;2023-03-03T16:26:53;102430.0;;;9.2;62.5
56594;BME280;42474;51.660;5.824;2023-03-03T16:31:28;102430.0;;;9.2;62.5
56594;BME280;42474;51.660;5.824;2023-03-03T16:35:36;102430.0;;;9.1;62.5
56594;BME280;42474;51.660;5.824;2023-03-03T16:40:37;102450.0;;;9.0;62.0
56594;BME280;42474;51.660;5.824;2023-03-03T16:45:36;102440.0;;;8.8;62.0
56594;BME280;42474;51.660;5.824;2023-03-03T16:50:49;102450.0;;;8.6;62.0
56594;BME280;42474;51.660;5.824;2023-03-03T16:55:31;102460.0;;;8.5;62.0
56594;BME280;42474;51.660;5.824;2023-03-03T17:00:50;102460.0;;;8.4;62.0
56594;BME280;42474;51.660;5.824;2023-03-03T17:05:43;102470.0;;;8.3;62.0
56594;BME280;42474;51.660;5.824;2023-03-03T17:10:57;102470.0;;;8.1;62.0
56594;BME280;42474;51.660;5.824;2023-03-03T17:16:41;102470.0;;;8.0;62.5
56594;BME280;42474;51.660;5.824;2023-03-03T17:21:10;102480.0;;;7.9;62.5
56594;BME280;42474;51.660;5.824;2023-03-03T17:26:32;102490.0;;;7.7;62.5
56594;BME280;42474;51.660;5.824;2023-03-03T17:31:50;102490.0;;;7.6;62.5
56594;BME280;42474;51.660;5.824;2023-03-03T17:37:33;102490.0;;;7.5;63.0
56594;BME280;42474;51.660;5.824;2023-03-03T17:42:19;102490.0;;;7.4;63.0
56594;BME280;42474;51.660;5.824;2023-03-03T17:45:59;102500.0;;;7.4;63.5
56594;BME280;42474;51.660;5.824;2023-03-03T17:51:22;102510.0;;;7.3;63.5
56594;BME280;42474;51.660;5.824;2023-03-03T17:56:39;102520.0;;;7.2;63.5
56594;BME280;42474;51.660;5.824;2023-03-03T18:02:35;102520.0;;;7.1;63.5
56594;BME280;42474;51.660;5.824;2023-03-03T18:07:54;102530.0;;;7.0;64.0
56594;BME280;42474;51.660;5.824;2023-03-03T18:14:14;102530.0;;;6.9;64.0
56594;BME280;42474;51.660;5.824;2023-03-03T18:19:30;102540.0;;;6.9;64.0
56594;BME280;42474;51.660;5.824;2023-03-03T18:22:55;102540.0;;;6.8;64.5
56594;BME280;42474;51.660;5.824;2023-03-03T18:25:52;102540.0;;;6.7;64.5
56594;BME280;42474;51.660;5.824;2023-03-03T18:30:31;102540.0;;;6.6;64.5
56594;BME280;42474;51.660;5.824;2023-03-03T18:35:37;102550.0;;;6.6;64.5
56594;BME280;42474;51.660;5.824;2023-03-03T18:40:33;102550.0;;;6.6;65.0
56594;BME280;42474;51.660;5.824;2023-03-03T18:45:55;102550.0;;;6.6;65.0
56594;BME280;42474;51.660;5.824;2023-03-03T18:50:37;102550.0;;;6.6;65.0
56594;BME280;42474;51.660;5.824;2023-03-03T18:55:25;102560.0;;;6.5;65.0
56594;BME280;42474;51.660;5.824;2023-03-03T19:00:29;102560.0;;;6.5;65.0
56594;BME280;42474;51.660;5.824;2023-03-03T19:05:36;102570.0;;;6.5;65.0
56594;BME280;42474;51.660;5.824;2023-03-03T19:10:54;102570.0;;;6.5;65.0
56594;BME280;42474;51.660;5.824;2023-03-03T19:15:49;102570.0;;;6.4;65.0
56594;BME280;42474;51.660;5.824;2023-03-03T19:20:24;102580.0;;;6.4;65.0
56594;BME280;42474;51.660;5.824;2023-03-03T19:25:27;102580.0;;;6.3;65.0
56594;BME280;42474;51.660;5.824;2023-03-03T19:31:20;102570.0;;;6.2;65.0
56594;BME280;42474;51.660;5.824;2023-03-03T19:36:16;102580.0;;;6.2;65.0
56594;BME280;42474;51.660;5.824;2023-03-03T19:41:59;102570.0;;;6.2;65.5
56594;BME280;42474;51.660;5.824;2023-03-03T19:47:03;102580.0;;;6.2;65.5
56594;BME280;42474;51.660;5.824;2023-03-03T19:52:21;102570.0;;;6.2;65.5
56594;BME280;42474;51.660;5.824;2023-03-03T19:56:59;102580.0;;;6.2;65.5
56594;BME280;42474;51.660;5.824;2023-03-03T20:02:21;102580.0;;;6.2;65.5
56594;BME280;42474;51.660;5.824;2023-03-03T20:07:19;102580.0;;;6.2;65.5
56594;BME280;42474;51.660;5.824;2023-03-03T20:12:27;102570.0;;;6.2;65.5
56594;BME280;42474;51.660;5.824;2023-03-03T20:16:43;102580.0;;;6.2;65.5
56594;BME280;42474;51.660;5.824;2023-03-03T20:21:45;102590.0;;;6.2;66.0
56594;BME280;42474;51.660;5.824;2023-03-03T20:26:23;102590.0;;;6.2;65.5
56594;BME280;42474;51.660;5.824;2023-03-03T20:31:34;102600.0;;;6.2;66.0
56594;BME280;42474;51.660;5.824;2023-03-03T20:37:00;102600.0;;;6.1;66.0
56594;BME280;42474;51.660;5.824;2023-03-03T20:42:25;102600.0;;;6.1;66.0
56594;BME280;42474;51.660;5.824;2023-03-03T20:48:15;102600.0;;;6.1;66.0
56594;BME280;42474;51.660;5.824;2023-03-03T20:53:25;102600.0;;;6.1;66.0
56594;BME280;42474;51.660;5.824;2023-03-03T20:58:18;102600.0;;;6.1;66.5
56594;BME280;42474;51.660;5.824;2023-03-03T21:02:36;102610.0;;;6.1;66.5
56594;BME280;42474;51.660;5.824;2023-03-03T21:05:22;102610.0;;;6.1;66.5
56594;BME280;42474;51.660;5.824;2023-03-03T21:10:25;102600.0;;;6.2;66.5
56594;BME280;42474;51.660;5.824;2023-03-03T21:15:31;102610.0;;;6.2;66.5
56594;BME280;42474;51.660;5.824;2023-03-03T21:20:26;102600.0;;;6.2;66.5
56594;BME280;42474;51.660;5.824;2023-03-03T21:25:44;102600.0;;;6.2;66.5
56594;BME280;42474;51.660;5.824;2023-03-03T21:30:22;102600.0;;;6.2;66.5
56594;BME280;42474;51.660;5.824;2023-03-03T21:35:22;102600.0;;;6.3;66.5
56594;BME280;42474;51.660;5.824;2023-03-03T21:40:28;102600.0;;;6.3;67.0
56594;BME280;42474;51.660;5.824;2023-03-03T21:45:22;102600.0;;;6.4;67.0
56594;BME280;42474;51.660;5.824;2023-03-03T21:50:22;102600.0;;;6.4;67.0
56594;BME280;42474;51.660;5.824;2023-03-03T21:55:22;102600.0;;;6.4;67.0
56594;BME280;42474;51.660;5.824;2023-03-03T22:00:22;102590.0;;;6.4;67.0
56594;BME280;42474;51.660;5.824;2023-03-03T22:05:22;102590.0;;;6.4;67.0
56594;BME280;42474;51.660;5.824;2023-03-03T22:10:22;102590.0;;;6.3;67.0
56594;BME280;42474;51.660;5.824;2023-03-03T22:15:22;102580.0;;;6.4;67.0
56594;BME280;42474;51.660;5.824;2023-03-03T22:20:22;102570.0;;;6.4;67.0
56594;BME280;42474;51.660;5.824;2023-03-03T22:25:22;102570.0;;;6.4;67.5
56594;BME280;42474;51.660;5.824;2023-03-03T22:30:22;102570.0;;;6.4;67.0
56594;BME280;42474;51.660;5.824;2023-03-03T22:35:22;102570.0;;;6.4;67.0
56594;BME280;42474;51.660;5.824;2023-03-03T22:40:22;102570.0;;;6.5;67.0
56594;BME280;42474;51.660;5.824;2023-03-03T22:45:22;102570.0;;;6.5;67.0
56594;BME280;42474;51.660;5.824;2023-03-03T22:50:22;102570.0;;;6.5;67.5
56594;BME280;42474;51.660;5.824;2023-03-03T22:55:22;102570.0;;;6.4;67.5
56594;BME280;42474;51.660;5.824;2023-03-03T23:00:22;102570.0;;;6.4;67.5
56594;BME280;42474;51.660;5.824;2023-03-03T23:05:22;102580.0;;;6.5;67.5
56594;BME280;42474;51.660;5.824;2023-03-03T23:10:22;102580.0;;;6.4;67.5
56594;BME280;42474;51.660;5.824;2023-03-03T23:15:22;102580.0;;;6.4;67.5
56594;BME280;42474;51.660;5.824;2023-03-03T23:20:26;102580.0;;;6.4;67.5
56594;BME280;42474;51.660;5.824;2023-03-03T23:25:23;102580.0;;;6.4;67.5
56594;BME280;42474;51.660;5.824;2023-03-03T23:30:23;102580.0;;;6.4;67.5
56594;BME280;42474;51.660;5.824;2023-03-03T23:35:22;102580.0;;;6.4;67.5
56594;BME280;42474;51.660;5.824;2023-03-03T23:40:22;102580.0;;;6.4;67.5
56594;BME280;42474;51.660;5.824;2023-03-03T23:45:22;102580.0;;;6.4;67.5
56594;BME280;42474;51.660;5.824;2023-03-03T23:50:22;102580.0;;;6.4;68.0
56594;BME280;42474;51.660;5.824;2023-03-03T23:55:22;102580.0;;;6.4;67.5
